sensor_id;sensor_type;location;lat;lon;timestamp;pressure;altitude;pressure_sealevel;temperature;humidity
21658;BME280;10990;48.174;9.782;2023-03-20T00:01:51;94562.88;;;7.52;100.00
21658;BME280;10990;48.174;9.782;2023-03-20T00:04:19;94568.59;;;7.47;100.00
21658;BME280;10990;48.174;9.782;2023-03-20T00:06:45;94571.63;;;7.34;100.00
21658;BME280;10990;48.174;9.782;2023-03-20T00:09:12;94544.88;;;7.39;100.00
21658;BME280;10990;48.174;9.782;2023-03-20T00:11:43;94564.22;;;7.30;100.00
21658;BME280;10990;48.174;9.782;2023-03-20T00:14:13;94561.91;;;7.27;100.00
21658;BME280;10990;48.174;9.782;2023-03-20T00:16:42;94568.88;;;7.10;100.00
21658;BME280;10990;48.174;9.782;2023-03-20T00:19:14;94564.91;;;7.06;100.00
21658;BME280;10990;48.174;9.782;2023-03-20T00:21:43;94560.06;;;6.93;100.00
21658;BME280;10990;48.174;9.782;2023-03-20T00:24:11;94553.31;;;6.90;100.00
21658;BME280;10990;48.174;9.782;2023-03-20T00:26:38;94508.16;;;7.21;100.00
21658;BME280;10990;48.174;9.782;2023-03-20T00:29:05;94506.69;;;7.27;100.00
21658;BME280;10990;48.174;9.782;2023-03-20T00:31:36;94507.31;;;7.21;100.00
21658;BME280;10990;48.174;9.782;2023-03-20T00:34:04;94500.00;;;7.06;100.00
21658;BME280;10990;48.174;9.782;2023-03-20T00:36:31;94483.09;;;7.09;100.00
21658;BME280;10990;48.174;9.782;2023-03-20T00:39:00;94465.13;;;7.30;100.00
21658;BME280;10990;48.174;9.782;2023-03-20T00:41:29;94454.41;;;7.32;100.00
21658;BME280;10990;48.174;9.782;2023-03-20T00:43:59;94452.75;;;7.23;100.00
21658;BME280;10990;48.174;9.782;2023-03-20T00:46:28;94437.81;;;7.31;100.00
21658;BME280;10990;48.174;9.782;2023-03-20T00:48:57;94404.34;;;7.50;100.00
21658;BME280;10990;48.174;9.782;2023-03-20T00:51:24;94403.19;;;7.44;100.00
21658;BME280;10990;48.174;9.782;2023-03-20T00:53:50;94402.38;;;7.44;100.00
21658;BME280;10990;48.174;9.782;2023-03-20T00:56:31;94395.47;;;7.51;100.00
21658;BME280;10990;48.174;9.782;2023-03-20T00:58:59;94408.75;;;7.33;100.00
21658;BME280;10990;48.174;9.782;2023-03-20T01:01:27;94401.31;;;7.28;100.00
21658;BME280;10990;48.174;9.782;2023-03-20T01:03:54;94389.03;;;7.37;100.00
21658;BME280;10990;48.174;9.782;2023-03-20T01:06:20;94385.94;;;7.50;100.00
21658;BME280;10990;48.174;9.782;2023-03-20T01:08:47;94388.22;;;7.45;100.00
21658;BME280;10990;48.174;9.782;2023-03-20T01:11:15;94392.34;;;7.55;100.00
21658;BME280;10990;48.174;9.782;2023-03-20T01:13:45;94401.72;;;7.58;100.00
21658;BME280;10990;48.174;9.782;2023-03-20T01:16:19;94410.06;;;7.45;100.00
21658;BME280;10990;48.174;9.782;2023-03-20T01:18:47;94406.78;;;7.35;100.00
21658;BME280;10990;48.174;9.782;2023-03-20T01:21:13;94426.47;;;7.23;100.00
21658;BME280;10990;48.174;9.782;2023-03-20T01:23:40;94410.00;;;7.21;100.00
21658;BME280;10990;48.174;9.782;2023-03-20T01:26:19;94401.81;;;7.24;100.00
21658;BME280;10990;48.174;9.782;2023-03-20T01:28:48;94378.97;;;7.16;100.00
21658;BME280;10990;48.174;9.782;2023-03-20T01:31:16;94348.59;;;7.30;100.00
21658;BME280;10990;48.174;9.782;2023-03-20T01:33:43;94349.75;;;7.35;100.00
21658;BME280;10990;48.174;9.782;2023-03-20T01:36:11;94347.13;;;7.44;100.00
21658;BME280;10990;48.174;9.782;2023-03-20T01:38:39;94351.88;;;7.40;100.00
21658;BME280;10990;48.174;9.782;2023-03-20T01:41:11;94335.63;;;7.53;100.00
21658;BME280;10990;48.174;9.782;2023-03-20T01:43:39;94295.16;;;7.70;100.00
21658;BME280;10990;48.174;9.782;2023-03-20T01:46:17;94306.19;;;7.57;100.00
21658;BME280;10990;48.174;9.782;2023-03-20T01:50:09;94308.50;;;7.52;100.00
21658;BME280;10990;48.174;9.782;2023-03-20T01:52:00;94311.44;;;7.41;100.00
21658;BME280;10990;48.174;9.782;2023-03-20T01:54:33;94304.84;;;7.29;100.00
21658;BME280;10990;48.174;9.782;2023-03-20T01:57:08;94288.25;;;7.28;100.00
21658;BME280;10990;48.174;9.782;2023-03-20T01:59:40;94276.75;;;7.37;100.00
21658;BME280;10990;48.174;9.782;2023-03-20T02:02:13;94265.06;;;7.56;100.00
21658;BME280;10990;48.174;9.782;2023-03-20T02:04:43;94258.84;;;7.57;100.00
21658;BME280;10990;48.174;9.782;2023-03-20T02:07:16;94268.19;;;7.60;100.00
21658;BME280;10990;48.174;9.782;2023-03-20T02:09:54;94263.09;;;7.75;100.00
21658;BME280;10990;48.174;9.782;2023-03-20T02:12:32;94269.31;;;7.82;100.00
21658;BME280;10990;48.174;9.782;2023-03-20T02:15:03;94278.53;;;7.86;100.00
21658;BME280;10990;48.174;9.782;2023-03-20T02:17:51;94288.56;;;7.82;100.00
21658;BME280;10990;48.174;9.782;2023-03-20T02:20:26;94292.19;;;7.90;100.00
21658;BME280;10990;48.174;9.782;2023-03-20T02:26:13;94301.41;;;7.61;100.00
21658;BME280;10990;48.174;9.782;2023-03-20T02:35:30;94285.97;;;7.66;100.00
21658;BME280;10990;48.174;9.782;2023-03-20T02:38:12;94283.16;;;7.76;100.00
21658;BME280;10990;48.174;9.782;2023-03-20T02:40:47;94280.19;;;7.71;100.00
21658;BME280;10990;48.174;9.782;2023-03-20T02:43:20;94278.88;;;7.67;100.00
21658;BME280;10990;48.174;9.782;2023-03-20T02:45:54;94271.00;;;7.75;100.00
21658;BME280;10990;48.174;9.782;2023-03-20T02:48:38;94261.94;;;7.85;100.00
21658;BME280;10990;48.174;9.782;2023-03-20T02:51:11;94261.28;;;7.75;100.00
21658;BME280;10990;48.174;9.782;2023-03-20T02:53:49;94259.81;;;7.64;100.00
21658;BME280;10990;48.174;9.782;2023-03-20T02:56:25;94244.81;;;7.73;100.00
21658;BME280;10990;48.174;9.782;2023-03-20T02:59:01;94249.13;;;7.66;100.00
21658;BME280;10990;48.174;9.782;2023-03-20T03:01:35;94227.72;;;7.77;100.00
21658;BME280;10990;48.174;9.782;2023-03-20T03:04:08;94241.84;;;7.84;100.00
21658;BME280;10990;48.174;9.782;2023-03-20T03:06:40;94235.09;;;7.82;100.00
21658;BME280;10990;48.174;9.782;2023-03-20T03:09:13;94241.19;;;7.82;100.00
21658;BME280;10990;48.174;9.782;2023-03-20T03:11:46;94233.00;;;7.69;100.00
21658;BME280;10990;48.174;9.782;2023-03-20T03:14:18;94239.09;;;7.53;100.00
21658;BME280;10990;48.174;9.782;2023-03-20T03:16:49;94262.78;;;7.53;100.00
21658;BME280;10990;48.174;9.782;2023-03-20T03:19:20;94265.75;;;7.50;100.00
21658;BME280;10990;48.174;9.782;2023-03-20T03:21:48;94261.47;;;7.49;100.00
21658;BME280;10990;48.174;9.782;2023-03-20T03:24:27;94259.13;;;7.62;100.00
21658;BME280;10990;48.174;9.782;2023-03-20T03:26:55;94262.09;;;7.68;100.00
21658;BME280;10990;48.174;9.782;2023-03-20T03:29:24;94268.53;;;7.57;100.00
21658;BME280;10990;48.174;9.782;2023-03-20T03:31:53;94268.69;;;7.47;100.00
21658;BME280;10990;48.174;9.782;2023-03-20T03:34:22;94262.09;;;7.51;100.00
21658;BME280;10990;48.174;9.782;2023-03-20T03:36:53;94263.91;;;7.59;100.00
21658;BME280;10990;48.174;9.782;2023-03-20T03:39:34;94263.09;;;7.67;100.00
21658;BME280;10990;48.174;9.782;2023-03-20T03:42:07;94262.63;;;7.63;100.00
21658;BME280;10990;48.174;9.782;2023-03-20T03:44:42;94271.81;;;7.75;100.00
21658;BME280;10990;48.174;9.782;2023-03-20T03:47:13;94275.25;;;7.76;100.00
21658;BME280;10990;48.174;9.782;2023-03-20T03:49:46;94281.53;;;7.58;100.00
21658;BME280;10990;48.174;9.782;2023-03-20T03:52:18;94278.41;;;7.63;100.00
21658;BME280;10990;48.174;9.782;2023-03-20T03:54:50;94295.00;;;7.55;100.00
21658;BME280;10990;48.174;9.782;2023-03-20T03:57:33;94292.88;;;7.59;100.00
21658;BME280;10990;48.174;9.782;2023-03-20T04:00:06;94287.25;;;7.86;100.00
21658;BME280;10990;48.174;9.782;2023-03-20T04:02:40;94297.94;;;7.93;100.00
21658;BME280;10990;48.174;9.782;2023-03-20T04:05:08;94306.69;;;7.85;100.00
21658;BME280;10990;48.174;9.782;2023-03-20T04:07:35;94313.22;;;7.98;100.00
21658;BME280;10990;48.174;9.782;2023-03-20T04:10:05;94325.25;;;7.92;100.00
21658;BME280;10990;48.174;9.782;2023-03-20T04:12:36;94339.72;;;7.96;100.00
21658;BME280;10990;48.174;9.782;2023-03-20T04:15:08;94346.16;;;7.77;100.00
21658;BME280;10990;48.174;9.782;2023-03-20T04:17:35;94354.22;;;7.84;100.00
21658;BME280;10990;48.174;9.782;2023-03-20T04:20:03;94359.66;;;7.74;100.00
21658;BME280;10990;48.174;9.782;2023-03-20T04:22:30;94356.50;;;7.62;100.00
21658;BME280;10990;48.174;9.782;2023-03-20T04:25:07;94355.84;;;7.60;100.00
21658;BME280;10990;48.174;9.782;2023-03-20T04:27:35;94362.06;;;7.51;100.00
21658;BME280;10990;48.174;9.782;2023-03-20T04:30:10;94374.41;;;7.43;100.00
21658;BME280;10990;48.174;9.782;2023-03-20T04:32:56;94362.91;;;7.60;100.00
21658;BME280;10990;48.174;9.782;2023-03-20T04:35:31;94357.50;;;7.61;100.00
21658;BME280;10990;48.174;9.782;2023-03-20T04:38:02;94363.41;;;7.63;100.00
21658;BME280;10990;48.174;9.782;2023-03-20T04:40:33;94355.03;;;7.76;100.00
21658;BME280;10990;48.174;9.782;2023-03-20T04:43:01;94365.41;;;7.70;100.00
21658;BME280;10990;48.174;9.782;2023-03-20T04:45:28;94369.50;;;7.64;100.00
21658;BME280;10990;48.174;9.782;2023-03-20T04:47:55;94371.81;;;7.67;100.00
21658;BME280;10990;48.174;9.782;2023-03-20T04:50:22;94371.16;;;7.81;100.00
21658;BME280;10990;48.174;9.782;2023-03-20T04:52:50;94372.31;;;7.79;100.00
21658;BME280;10990;48.174;9.782;2023-03-20T04:55:17;94380.34;;;7.61;100.00
21658;BME280;10990;48.174;9.782;2023-03-20T04:57:45;94367.22;;;7.77;100.00
21658;BME280;10990;48.174;9.782;2023-03-20T05:00:13;94367.69;;;7.81;100.00
21658;BME280;10990;48.174;9.782;2023-03-20T05:02:40;94372.28;;;7.71;100.00
21658;BME280;10990;48.174;9.782;2023-03-20T05:05:07;94383.31;;;7.82;100.00
21658;BME280;10990;48.174;9.782;2023-03-20T05:07:34;94395.50;;;7.75;100.00
21658;BME280;10990;48.174;9.782;2023-03-20T05:10:08;94383.97;;;7.76;100.00
21658;BME280;10990;48.174;9.782;2023-03-20T05:12:46;94395.94;;;7.54;100.00
21658;BME280;10990;48.174;9.782;2023-03-20T05:15:22;94382.16;;;7.77;100.00
21658;BME280;10990;48.174;9.782;2023-03-20T05:18:04;94387.94;;;7.80;100.00
21658;BME280;10990;48.174;9.782;2023-03-20T05:20:51;94392.06;;;7.83;100.00
21658;BME280;10990;48.174;9.782;2023-03-20T05:23:30;94392.38;;;7.80;100.00
21658;BME280;10990;48.174;9.782;2023-03-20T05:26:15;94387.75;;;7.74;100.00
21658;BME280;10990;48.174;9.782;2023-03-20T05:29:03;94405.88;;;7.69;100.00
21658;BME280;10990;48.174;9.782;2023-03-20T05:31:56;94400.25;;;7.63;100.00
21658;BME280;10990;48.174;9.782;2023-03-20T05:34:49;94403.84;;;7.62;100.00
21658;BME280;10990;48.174;9.782;2023-03-20T05:37:21;94406.19;;;7.57;100.00
21658;BME280;10990;48.174;9.782;2023-03-20T05:40:08;94411.59;;;7.56;100.00
21658;BME280;10990;48.174;9.782;2023-03-20T05:42:46;94399.13;;;7.66;100.00
21658;BME280;10990;48.174;9.782;2023-03-20T05:45:49;94408.19;;;7.80;100.00
21658;BME280;10990;48.174;9.782;2023-03-20T05:48:42;94412.91;;;7.68;100.00
21658;BME280;10990;48.174;9.782;2023-03-20T05:51:11;94415.75;;;7.83;100.00
21658;BME280;10990;48.174;9.782;2023-03-20T05:53:53;94408.34;;;7.86;100.00
21658;BME280;10990;48.174;9.782;2023-03-20T05:56:37;94425.44;;;7.82;100.00
21658;BME280;10990;48.174;9.782;2023-03-20T05:59:22;94412.59;;;7.96;100.00
21658;BME280;10990;48.174;9.782;2023-03-20T06:02:16;94427.59;;;7.95;100.00
21658;BME280;10990;48.174;9.782;2023-03-20T06:04:51;94428.59;;;7.94;100.00
21658;BME280;10990;48.174;9.782;2023-03-20T06:07:27;94428.25;;;7.89;100.00
21658;BME280;10990;48.174;9.782;2023-03-20T06:10:00;94436.28;;;7.88;100.00
21658;BME280;10990;48.174;9.782;2023-03-20T06:12:29;94438.75;;;7.81;100.00
21658;BME280;10990;48.174;9.782;2023-03-20T06:14:56;94426.75;;;7.86;100.00
21658;BME280;10990;48.174;9.782;2023-03-20T06:17:26;94426.25;;;7.91;100.00
21658;BME280;10990;48.174;9.782;2023-03-20T06:19:58;94437.59;;;7.75;100.00
21658;BME280;10990;48.174;9.782;2023-03-20T06:22:25;94433.97;;;7.76;100.00
21658;BME280;10990;48.174;9.782;2023-03-20T06:24:53;94430.50;;;7.68;100.00
21658;BME280;10990;48.174;9.782;2023-03-20T06:27:26;94419.84;;;7.77;100.00
21658;BME280;10990;48.174;9.782;2023-03-20T06:29:53;94409.31;;;7.77;100.00
21658;BME280;10990;48.174;9.782;2023-03-20T06:32:29;94404.72;;;7.88;100.00
21658;BME280;10990;48.174;9.782;2023-03-20T06:34:58;94395.84;;;7.89;100.00
21658;BME280;10990;48.174;9.782;2023-03-20T06:37:24;94394.84;;;7.98;100.00
21658;BME280;10990;48.174;9.782;2023-03-20T06:39:59;94397.97;;;8.09;100.00
21658;BME280;10990;48.174;9.782;2023-03-20T06:42:26;94407.69;;;8.25;100.00
21658;BME280;10990;48.174;9.782;2023-03-20T06:44:55;94414.44;;;8.28;100.00
21658;BME280;10990;48.174;9.782;2023-03-20T06:47:41;94407.84;;;8.48;100.00
21658;BME280;10990;48.174;9.782;2023-03-20T06:50:09;94431.69;;;8.55;100.00
21658;BME280;10990;48.174;9.782;2023-03-20T06:52:36;94452.44;;;8.66;100.00
21658;BME280;10990;48.174;9.782;2023-03-20T06:55:21;94471.34;;;8.70;100.00
21658;BME280;10990;48.174;9.782;2023-03-20T06:57:48;94484.25;;;8.65;100.00
21658;BME280;10990;48.174;9.782;2023-03-20T07:00:17;94488.66;;;8.64;100.00
21658;BME280;10990;48.174;9.782;2023-03-20T07:02:46;94506.16;;;8.57;100.00
21658;BME280;10990;48.174;9.782;2023-03-20T07:05:14;94511.75;;;8.54;100.00
21658;BME280;10990;48.174;9.782;2023-03-20T07:07:43;94510.75;;;8.71;100.00
21658;BME280;10990;48.174;9.782;2023-03-20T07:10:10;94529.19;;;8.71;100.00
21658;BME280;10990;48.174;9.782;2023-03-20T07:12:37;94537.75;;;8.82;100.00
21658;BME280;10990;48.174;9.782;2023-03-20T07:15:05;94544.81;;;8.81;100.00
21658;BME280;10990;48.174;9.782;2023-03-20T07:17:32;94537.22;;;9.03;100.00
21658;BME280;10990;48.174;9.782;2023-03-20T07:20:00;94562.47;;;8.97;100.00
21658;BME280;10990;48.174;9.782;2023-03-20T07:22:29;94558.16;;;9.12;100.00
21658;BME280;10990;48.174;9.782;2023-03-20T07:25:25;94566.22;;;9.27;100.00
21658;BME280;10990;48.174;9.782;2023-03-20T07:27:53;94634.00;;;9.18;100.00
21658;BME280;10990;48.174;9.782;2023-03-20T07:30:23;94691.22;;;9.18;100.00
21658;BME280;10990;48.174;9.782;2023-03-20T07:32:50;94701.09;;;9.40;100.00
21658;BME280;10990;48.174;9.782;2023-03-20T07:35:20;94734.56;;;9.48;100.00
21658;BME280;10990;48.174;9.782;2023-03-20T07:37:47;94744.28;;;9.64;100.00
21658;BME280;10990;48.174;9.782;2023-03-20T07:40:14;94768.88;;;9.81;100.00
21658;BME280;10990;48.174;9.782;2023-03-20T07:42:55;94792.91;;;10.19;100.00
21658;BME280;10990;48.174;9.782;2023-03-20T07:45:41;94832.56;;;10.83;100.00
21658;BME280;10990;48.174;9.782;2023-03-20T07:48:07;94892.41;;;10.84;100.00
21658;BME280;10990;48.174;9.782;2023-03-20T07:50:36;94918.56;;;10.79;100.00
21658;BME280;10990;48.174;9.782;2023-03-20T07:53:03;94955.94;;;10.51;100.00
21658;BME280;10990;48.174;9.782;2023-03-20T07:55:29;94962.06;;;10.51;100.00
21658;BME280;10990;48.174;9.782;2023-03-20T07:57:56;94976.44;;;10.57;100.00
21658;BME280;10990;48.174;9.782;2023-03-20T08:00:23;94996.59;;;10.66;100.00
21658;BME280;10990;48.174;9.782;2023-03-20T08:02:49;95007.81;;;10.68;100.00
21658;BME280;10990;48.174;9.782;2023-03-20T08:05:16;95045.69;;;10.77;100.00
21658;BME280;10990;48.174;9.782;2023-03-20T08:07:44;95087.84;;;10.70;100.00
21658;BME280;10990;48.174;9.782;2023-03-20T08:10:11;95128.00;;;10.82;100.00
21658;BME280;10990;48.174;9.782;2023-03-20T08:12:38;95169.22;;;10.93;100.00
21658;BME280;10990;48.174;9.782;2023-03-20T08:15:05;95184.09;;;11.10;100.00
21658;BME280;10990;48.174;9.782;2023-03-20T08:17:32;95217.00;;;11.08;100.00
21658;BME280;10990;48.174;9.782;2023-03-20T08:19:59;95233.56;;;11.18;100.00
21658;BME280;10990;48.174;9.782;2023-03-20T08:22:25;95266.72;;;10.80;100.00
21658;BME280;10990;48.174;9.782;2023-03-20T08:24:53;95283.28;;;10.82;100.00
21658;BME280;10990;48.174;9.782;2023-03-20T08:27:20;95284.00;;;10.58;100.00
21658;BME280;10990;48.174;9.782;2023-03-20T08:29:47;95274.34;;;10.40;100.00
21658;BME280;10990;48.174;9.782;2023-03-20T08:32:13;95259.28;;;10.41;100.00
21658;BME280;10990;48.174;9.782;2023-03-20T08:34:40;95259.34;;;10.49;100.00
21658;BME280;10990;48.174;9.782;2023-03-20T08:37:07;95244.47;;;10.48;100.00
21658;BME280;10990;48.174;9.782;2023-03-20T08:39:34;95239.94;;;10.32;100.00
21658;BME280;10990;48.174;9.782;2023-03-20T08:42:03;95228.81;;;10.63;100.00
21658;BME280;10990;48.174;9.782;2023-03-20T08:44:30;95238.75;;;10.69;100.00
21658;BME280;10990;48.174;9.782;2023-03-20T08:46:57;95251.97;;;10.69;100.00
21658;BME280;10990;48.174;9.782;2023-03-20T08:49:24;95254.03;;;10.91;100.00
21658;BME280;10990;48.174;9.782;2023-03-20T08:51:50;95276.84;;;10.84;100.00
21658;BME280;10990;48.174;9.782;2023-03-20T08:54:17;95295.91;;;11.04;100.00
21658;BME280;10990;48.174;9.782;2023-03-20T08:56:44;95320.66;;;10.95;100.00
21658;BME280;10990;48.174;9.782;2023-03-20T08:59:12;95339.28;;;11.19;100.00
21658;BME280;10990;48.174;9.782;2023-03-20T09:01:39;95368.50;;;11.02;100.00
21658;BME280;10990;48.174;9.782;2023-03-20T09:04:06;95387.00;;;10.93;100.00
21658;BME280;10990;48.174;9.782;2023-03-20T09:06:35;95398.63;;;11.09;100.00
21658;BME280;10990;48.174;9.782;2023-03-20T09:09:02;95425.91;;;11.09;100.00
21658;BME280;10990;48.174;9.782;2023-03-20T09:11:29;95449.59;;;11.11;100.00
21658;BME280;10990;48.174;9.782;2023-03-20T09:13:56;95471.00;;;11.68;100.00
21658;BME280;10990;48.174;9.782;2023-03-20T09:16:25;95517.56;;;11.79;100.00
21658;BME280;10990;48.174;9.782;2023-03-20T09:18:51;95557.88;;;11.91;100.00
21658;BME280;10990;48.174;9.782;2023-03-20T09:21:19;95584.59;;;11.97;100.00
21658;BME280;10990;48.174;9.782;2023-03-20T09:23:45;95617.63;;;11.85;100.00
21658;BME280;10990;48.174;9.782;2023-03-20T09:26:12;95644.13;;;12.11;100.00
21658;BME280;10990;48.174;9.782;2023-03-20T09:28:39;95671.44;;;11.77;100.00
21658;BME280;10990;48.174;9.782;2023-03-20T09:31:06;95690.06;;;11.94;100.00
21658;BME280;10990;48.174;9.782;2023-03-20T09:33:34;95711.31;;;11.76;100.00
21658;BME280;10990;48.174;9.782;2023-03-20T09:36:01;95716.34;;;11.61;100.00
21658;BME280;10990;48.174;9.782;2023-03-20T09:38:28;95719.56;;;11.47;100.00
21658;BME280;10990;48.174;9.782;2023-03-20T09:40:56;95740.34;;;11.59;100.00
21658;BME280;10990;48.174;9.782;2023-03-20T09:43:31;95720.03;;;11.68;100.00
21658;BME280;10990;48.174;9.782;2023-03-20T09:46:14;95703.06;;;11.79;100.00
21658;BME280;10990;48.174;9.782;2023-03-20T09:48:50;95714.06;;;11.66;100.00
21658;BME280;10990;48.174;9.782;2023-03-20T09:51:24;95734.84;;;11.53;100.00
21658;BME280;10990;48.174;9.782;2023-03-20T09:53:58;95736.66;;;11.52;100.00
21658;BME280;10990;48.174;9.782;2023-03-20T09:56:29;95738.59;;;11.68;100.00
21658;BME280;10990;48.174;9.782;2023-03-20T09:58:57;95736.47;;;11.54;100.00
21658;BME280;10990;48.174;9.782;2023-03-20T10:01:28;95718.59;;;11.74;100.00
21658;BME280;10990;48.174;9.782;2023-03-20T10:03:59;95740.75;;;11.29;100.00
21658;BME280;10990;48.174;9.782;2023-03-20T10:06:28;95704.44;;;11.39;100.00
21658;BME280;10990;48.174;9.782;2023-03-20T10:08:55;95730.25;;;11.19;100.00
21658;BME280;10990;48.174;9.782;2023-03-20T10:11:46;95748.38;;;11.32;100.00
21658;BME280;10990;48.174;9.782;2023-03-20T10:14:21;95741.81;;;11.18;100.00
21658;BME280;10990;48.174;9.782;2023-03-20T10:17:01;95749.22;;;11.32;100.00
21658;BME280;10990;48.174;9.782;2023-03-20T10:19:34;95738.25;;;11.45;100.00
21658;BME280;10990;48.174;9.782;2023-03-20T10:22:09;95722.66;;;11.42;100.00
21658;BME280;10990;48.174;9.782;2023-03-20T10:24:43;95745.16;;;11.38;100.00
21658;BME280;10990;48.174;9.782;2023-03-20T10:27:20;95724.13;;;11.62;100.00
21658;BME280;10990;48.174;9.782;2023-03-20T10:29:53;95733.53;;;12.01;100.00
21658;BME280;10990;48.174;9.782;2023-03-20T10:32:28;95759.84;;;11.94;100.00
21658;BME280;10990;48.174;9.782;2023-03-20T10:35:12;95799.28;;;11.79;100.00
21658;BME280;10990;48.174;9.782;2023-03-20T10:37:52;95804.75;;;11.60;100.00
21658;BME280;10990;48.174;9.782;2023-03-20T10:40:28;95813.91;;;11.48;100.00
21658;BME280;10990;48.174;9.782;2023-03-20T10:42:59;95802.63;;;11.45;100.00
21658;BME280;10990;48.174;9.782;2023-03-20T10:45:32;95797.13;;;11.39;100.00
21658;BME280;10990;48.174;9.782;2023-03-20T10:48:05;95780.00;;;11.87;100.00
21658;BME280;10990;48.174;9.782;2023-03-20T10:50:39;95802.72;;;11.89;100.00
21658;BME280;10990;48.174;9.782;2023-03-20T10:53:09;95806.50;;;12.13;100.00
21658;BME280;10990;48.174;9.782;2023-03-20T10:55:45;95836.84;;;12.37;100.00
21658;BME280;10990;48.174;9.782;2023-03-20T10:58:15;95854.72;;;12.34;100.00
21658;BME280;10990;48.174;9.782;2023-03-20T11:00:43;95875.84;;;12.44;100.00
21658;BME280;10990;48.174;9.782;2023-03-20T11:03:19;95914.44;;;12.39;100.00
21658;BME280;10990;48.174;9.782;2023-03-20T11:05:52;95932.72;;;12.42;100.00
21658;BME280;10990;48.174;9.782;2023-03-20T11:08:22;95924.13;;;12.48;100.00
21658;BME280;10990;48.174;9.782;2023-03-20T11:10:57;95934.88;;;12.46;100.00
21658;BME280;10990;48.174;9.782;2023-03-20T11:13:29;95949.72;;;12.57;100.00
21658;BME280;10990;48.174;9.782;2023-03-20T11:15:57;95948.91;;;12.56;100.00
21658;BME280;10990;48.174;9.782;2023-03-20T11:18:33;95961.16;;;12.57;100.00
21658;BME280;10990;48.174;9.782;2023-03-20T11:21:01;95967.88;;;12.44;100.00
21658;BME280;10990;48.174;9.782;2023-03-20T11:23:31;95976.72;;;12.70;100.00
21658;BME280;10990;48.174;9.782;2023-03-20T11:26:01;95990.13;;;12.69;100.00
21658;BME280;10990;48.174;9.782;2023-03-20T11:28:33;96006.03;;;12.69;100.00
21658;BME280;10990;48.174;9.782;2023-03-20T11:31:04;96026.13;;;12.71;100.00
21658;BME280;10990;48.174;9.782;2023-03-20T11:33:33;96021.59;;;12.64;100.00
21658;BME280;10990;48.174;9.782;2023-03-20T11:36:10;96024.84;;;12.75;100.00
21658;BME280;10990;48.174;9.782;2023-03-20T11:38:43;96044.72;;;12.36;100.00
21658;BME280;10990;48.174;9.782;2023-03-20T11:41:16;96044.50;;;12.47;100.00
21658;BME280;10990;48.174;9.782;2023-03-20T11:43:43;96037.00;;;12.60;100.00
21658;BME280;10990;48.174;9.782;2023-03-20T11:46:11;96049.88;;;12.73;100.00
21658;BME280;10990;48.174;9.782;2023-03-20T11:48:40;96056.53;;;12.77;100.00
21658;BME280;10990;48.174;9.782;2023-03-20T11:51:13;96052.94;;;13.04;100.00
21658;BME280;10990;48.174;9.782;2023-03-20T11:53:55;96055.06;;;13.00;100.00
21658;BME280;10990;48.174;9.782;2023-03-20T11:56:24;96065.88;;;12.81;100.00
21658;BME280;10990;48.174;9.782;2023-03-20T11:58:55;96066.97;;;12.96;100.00
21658;BME280;10990;48.174;9.782;2023-03-20T12:01:23;96067.72;;;13.07;100.00
21658;BME280;10990;48.174;9.782;2023-03-20T12:04:05;96078.97;;;12.83;100.00
21658;BME280;10990;48.174;9.782;2023-03-20T12:06:41;96075.84;;;13.05;100.00
21658;BME280;10990;48.174;9.782;2023-03-20T12:09:20;96079.19;;;12.89;100.00
21658;BME280;10990;48.174;9.782;2023-03-20T12:11:52;96071.47;;;12.78;100.00
21658;BME280;10990;48.174;9.782;2023-03-20T12:14:26;96070.19;;;12.82;100.00
21658;BME280;10990;48.174;9.782;2023-03-20T12:17:09;96047.88;;;13.19;100.00
21658;BME280;10990;48.174;9.782;2023-03-20T12:19:39;96056.22;;;12.98;100.00
21658;BME280;10990;48.174;9.782;2023-03-20T12:22:15;96057.84;;;12.73;100.00
21658;BME280;10990;48.174;9.782;2023-03-20T12:24:52;96055.00;;;12.92;100.00
21658;BME280;10990;48.174;9.782;2023-03-20T12:27:24;96055.09;;;13.09;100.00
21658;BME280;10990;48.174;9.782;2023-03-20T12:29:57;96060.09;;;13.12;100.00
21658;BME280;10990;48.174;9.782;2023-03-20T12:32:31;96071.09;;;13.35;100.00
21658;BME280;10990;48.174;9.782;2023-03-20T12:35:04;96088.66;;;13.28;100.00
21658;BME280;10990;48.174;9.782;2023-03-20T12:37:33;96089.34;;;13.30;100.00
21658;BME280;10990;48.174;9.782;2023-03-20T12:40:00;96091.22;;;13.19;100.00
21658;BME280;10990;48.174;9.782;2023-03-20T12:42:38;96092.53;;;13.15;100.00
21658;BME280;10990;48.174;9.782;2023-03-20T12:45:11;96090.75;;;12.98;100.00
21658;BME280;10990;48.174;9.782;2023-03-20T12:47:57;96084.75;;;13.22;100.00
21658;BME280;10990;48.174;9.782;2023-03-20T12:50:30;96087.88;;;13.17;100.00
21658;BME280;10990;48.174;9.782;2023-03-20T12:53:10;96076.28;;;13.18;100.00
21658;BME280;10990;48.174;9.782;2023-03-20T12:55:51;96087.09;;;12.99;100.00
21658;BME280;10990;48.174;9.782;2023-03-20T12:58:25;96090.69;;;13.16;100.00
21658;BME280;10990;48.174;9.782;2023-03-20T13:00:59;96096.06;;;13.24;100.00
21658;BME280;10990;48.174;9.782;2023-03-20T13:03:47;96100.53;;;13.41;100.00
21658;BME280;10990;48.174;9.782;2023-03-20T13:06:20;96102.88;;;13.44;100.00
21658;BME280;10990;48.174;9.782;2023-03-20T13:09:09;96108.75;;;13.30;100.00
21658;BME280;10990;48.174;9.782;2023-03-20T13:11:46;96109.38;;;13.50;100.00
21658;BME280;10990;48.174;9.782;2023-03-20T13:14:22;96112.88;;;13.51;100.00
21658;BME280;10990;48.174;9.782;2023-03-20T13:16:57;96110.19;;;13.77;100.00
21658;BME280;10990;48.174;9.782;2023-03-20T13:19:33;96107.63;;;13.59;100.00
21658;BME280;10990;48.174;9.782;2023-03-20T13:22:05;96110.44;;;13.57;100.00
21658;BME280;10990;48.174;9.782;2023-03-20T13:24:40;96112.84;;;13.68;100.00
21658;BME280;10990;48.174;9.782;2023-03-20T13:27:19;96115.94;;;13.20;100.00
21658;BME280;10990;48.174;9.782;2023-03-20T13:29:56;96108.03;;;13.46;100.00
21658;BME280;10990;48.174;9.782;2023-03-20T13:32:38;96100.03;;;13.38;100.00